createdAt,value
2023-04-15T00:00:46.878Z,4.41
2023-04-15T00:03:51.289Z,4.36
2023-04-15T00:06:54.820Z,4.34
2023-04-15T00:09:57.925Z,4.32
2023-04-15T00:12:59.782Z,4.26
2023-04-15T00:16:02.346Z,4.30
2023-04-15T00:19:05.002Z,4.29
2023-04-15T00:22:07.203Z,4.29
2023-04-15T00:25:09.639Z,4.25
2023-04-15T00:28:11.748Z,4.24
2023-04-15T00:31:14.356Z,4.17
2023-04-15T00:34:16.782Z,4.23
2023-04-15T00:37:18.729Z,4.19
2023-04-15T00:40:21.960Z,4.16
2023-04-15T00:43:26.559Z,4.12
2023-04-15T00:46:31.143Z,4.08
2023-04-15T00:49:33.286Z,4.06
2023-04-15T00:52:37.321Z,4.07
2023-04-15T00:55:40.151Z,4.04
2023-04-15T00:58:42.143Z,4.06
2023-04-15T01:01:44.749Z,4.11
2023-04-15T01:04:47.219Z,4.11
2023-04-15T01:07:49.417Z,4.07
2023-04-15T01:10:51.255Z,4.06
2023-04-15T01:13:55.197Z,4.02
2023-04-15T01:16:57.650Z,4.01
2023-04-15T01:19:59.576Z,4.01
2023-04-15T01:23:01.562Z,4.05
2023-04-15T01:26:04.221Z,3.98
2023-04-15T01:29:06.825Z,4.03
2023-04-15T01:32:09.099Z,4.07
2023-04-15T01:35:10.991Z,4.04
2023-04-15T01:38:13.711Z,4.05
2023-04-15T01:41:15.658Z,4.02
2023-04-15T01:44:17.710Z,3.95
2023-04-15T01:47:19.674Z,3.87
2023-04-15T01:50:22.676Z,3.78
2023-04-15T01:53:27.678Z,3.83
2023-04-15T01:56:29.955Z,3.86
2023-04-15T01:59:32.289Z,3.79
2023-04-15T02:02:34.668Z,3.80
2023-04-15T02:05:36.720Z,3.70
2023-04-15T02:08:39.287Z,3.69
2023-04-15T02:11:42.644Z,3.66
2023-04-15T02:14:44.459Z,3.59
2023-04-15T02:17:51.078Z,3.60
2023-04-15T02:20:53.267Z,3.57
2023-04-15T02:23:55.115Z,3.52
2023-04-15T02:26:57.546Z,3.50
2023-04-15T02:29:59.469Z,3.44
2023-04-15T02:33:01.989Z,3.40
2023-04-15T02:36:04.480Z,3.39
2023-04-15T02:39:06.447Z,3.39
2023-04-15T02:42:09.278Z,3.28
2023-04-15T02:45:12.998Z,3.24
2023-04-15T02:48:18.145Z,3.23
2023-04-15T02:51:21.705Z,3.09
2023-04-15T02:54:24.891Z,3.15
2023-04-15T02:57:28.706Z,3.20
2023-04-15T03:00:33.488Z,3.20
2023-04-15T03:03:35.573Z,3.17
2023-04-15T03:06:37.652Z,3.16
2023-04-15T03:09:41.318Z,3.20
2023-04-15T03:12:43.774Z,3.18
2023-04-15T03:15:50.863Z,3.23
2023-04-15T03:18:52.839Z,3.28
2023-04-15T03:21:56.388Z,3.28
2023-04-15T03:24:58.503Z,3.25
2023-04-15T03:28:00.790Z,3.22
2023-04-15T03:31:02.737Z,3.28
2023-04-15T03:34:04.719Z,3.32
2023-04-15T03:37:06.890Z,3.38
2023-04-15T03:40:09.864Z,3.41
2023-04-15T03:43:12.305Z,3.48
2023-04-15T03:46:14.246Z,3.40
2023-04-15T03:49:16.446Z,3.40
2023-04-15T03:52:18.392Z,3.48
2023-04-15T03:55:20.773Z,3.49
2023-04-15T03:58:22.667Z,3.49
2023-04-15T04:01:24.677Z,3.52
2023-04-15T04:04:26.837Z,3.66
2023-04-15T04:07:28.983Z,3.68
2023-04-15T04:10:31.087Z,3.62
2023-04-15T04:13:33.086Z,3.68
2023-04-15T04:16:34.962Z,3.69
2023-04-15T04:19:36.902Z,3.74
2023-04-15T04:22:40.195Z,3.76
2023-04-15T04:25:42.554Z,3.82
2023-04-15T04:28:44.432Z,3.84
2023-04-15T04:31:47.059Z,3.91
2023-04-15T04:34:49.008Z,3.92
2023-04-15T04:37:51.035Z,3.98
2023-04-15T04:40:52.974Z,3.96
2023-04-15T04:43:54.892Z,3.92
2023-04-15T04:46:56.767Z,3.96
2023-04-15T04:49:58.654Z,4.00
2023-04-15T04:53:01.261Z,4.07
2023-04-15T04:56:03.658Z,4.10
2023-04-15T04:59:05.976Z,4.07
2023-04-15T05:02:07.943Z,4.07
2023-04-15T05:05:11.820Z,4.16
2023-04-15T05:08:13.712Z,4.14
2023-04-15T05:11:15.606Z,4.21
2023-04-15T05:14:17.573Z,4.24
2023-04-15T05:17:19.396Z,4.23
2023-04-15T05:20:21.447Z,4.27
2023-04-15T05:23:23.450Z,4.38
2023-04-15T05:26:25.439Z,4.40
2023-04-15T05:29:27.461Z,4.40
2023-04-15T05:32:29.382Z,4.35
2023-04-15T05:35:31.326Z,4.39
2023-04-15T05:38:33.365Z,4.42
2023-04-15T05:41:35.313Z,4.44
2023-04-15T05:44:37.238Z,4.53
2023-04-15T05:47:40.226Z,4.63
2023-04-15T05:50:42.603Z,4.74
2023-04-15T05:53:46.046Z,4.81
2023-04-15T05:56:47.987Z,4.70
2023-04-15T05:59:52.441Z,4.71
2023-04-15T06:02:54.944Z,4.84
2023-04-15T06:05:56.834Z,4.81
2023-04-15T06:08:58.769Z,4.95
2023-04-15T06:12:01.988Z,4.80
2023-04-15T06:15:06.741Z,4.81
2023-04-15T06:18:08.597Z,4.86
2023-04-15T06:21:10.707Z,4.84
2023-04-15T06:24:12.936Z,4.78
2023-04-15T06:27:14.863Z,4.89
2023-04-15T06:30:17.162Z,5.02
2023-04-15T06:33:19.050Z,5.12
2023-04-15T06:36:21.224Z,5.18
2023-04-15T06:39:23.143Z,5.25
2023-04-15T06:42:25.133Z,5.27
2023-04-15T06:45:27.451Z,5.27
2023-04-15T06:48:29.430Z,5.20
2023-04-15T06:51:31.643Z,5.18
2023-04-15T06:54:33.557Z,5.11
2023-04-15T06:57:35.463Z,5.06
2023-04-15T07:00:39.334Z,5.14
2023-04-15T07:03:42.108Z,5.23
2023-04-15T07:06:44.703Z,5.23
2023-04-15T07:09:46.654Z,5.19
2023-04-15T07:12:49.408Z,5.15
2023-04-15T07:15:51.374Z,5.20
2023-04-15T07:18:53.220Z,5.21
2023-04-15T07:21:55.150Z,5.07
2023-04-15T07:24:57.051Z,5.17
2023-04-15T07:27:59.050Z,5.29
2023-04-15T07:31:01.223Z,5.42
2023-04-15T07:34:05.259Z,5.56
2023-04-15T07:37:07.429Z,5.55
2023-04-15T07:40:10.170Z,5.66
2023-04-15T07:43:13.565Z,5.64
2023-04-15T07:46:15.636Z,5.69
2023-04-15T07:49:19.417Z,5.76
2023-04-15T07:52:21.242Z,5.81
2023-04-15T07:55:23.603Z,5.77
2023-04-15T07:58:25.862Z,5.81
2023-04-15T08:01:27.853Z,6.12
2023-04-15T08:04:29.962Z,6.31
2023-04-15T08:07:32.732Z,6.30
2023-04-15T08:10:34.811Z,6.42
2023-04-15T08:13:36.656Z,6.34
2023-04-15T08:16:38.715Z,6.30
2023-04-15T08:19:41.050Z,6.21
2023-04-15T08:22:42.845Z,6.37
2023-04-15T08:25:44.744Z,6.49
2023-04-15T08:28:47.157Z,6.53
2023-04-15T08:31:49.173Z,6.61
2023-04-15T08:34:51.112Z,6.78
2023-04-15T08:37:53.003Z,6.82
2023-04-15T08:40:57.369Z,6.78
2023-04-15T08:44:05.189Z,6.97
2023-04-15T08:47:09.470Z,7.10
2023-04-15T08:50:12.011Z,7.13
2023-04-15T08:53:14.983Z,7.12
2023-04-15T08:56:16.997Z,7.13
2023-04-15T08:59:21.407Z,7.09
2023-04-15T09:02:25.860Z,7.11
2023-04-15T09:05:27.840Z,7.15
2023-04-15T09:08:29.646Z,7.17
2023-04-15T09:11:31.599Z,7.29
2023-04-15T09:14:35.022Z,7.42
2023-04-15T09:17:43.194Z,7.58
2023-04-15T09:20:45.066Z,7.76
2023-04-15T09:23:58.506Z,7.93
2023-04-15T09:27:00.655Z,7.99
2023-04-15T09:30:02.484Z,7.95
2023-04-15T09:33:08.966Z,7.90
2023-04-15T09:36:11.021Z,8.13
2023-04-15T09:39:13.224Z,8.34
2023-04-15T09:42:15.236Z,8.42
2023-04-15T09:45:17.247Z,8.52
2023-04-15T09:48:31.174Z,8.81
2023-04-15T09:51:35.833Z,8.92
2023-04-15T09:54:38.806Z,8.91
2023-04-15T09:57:50.080Z,8.89
2023-04-15T10:00:53.300Z,8.84
2023-04-15T10:03:58.009Z,8.93
2023-04-15T10:07:02.225Z,9.11
2023-04-15T10:10:05.522Z,9.17
2023-04-15T10:13:08.265Z,9.39
2023-04-15T10:16:16.278Z,9.38
2023-04-15T10:19:21.969Z,9.40
2023-04-15T10:22:26.506Z,9.38
2023-04-15T10:25:29.639Z,9.22
2023-04-15T10:28:31.731Z,9.48
2023-04-15T10:31:34.257Z,9.30
2023-04-15T10:34:37.193Z,9.42
2023-04-15T10:37:39.145Z,9.47
2023-04-15T10:40:41.242Z,9.57
2023-04-15T10:43:54.194Z,9.63
2023-04-15T10:46:58.941Z,9.69
2023-04-15T10:50:02.482Z,9.73
2023-04-15T10:53:07.458Z,9.63
2023-04-15T10:56:10.628Z,9.70
2023-04-15T10:59:12.520Z,9.97
2023-04-15T11:02:15.616Z,10.08
2023-04-15T11:05:19.059Z,10.20
2023-04-15T11:08:41.079Z,9.97
2023-04-15T11:12:06.257Z,9.80
2023-04-15T11:15:41.776Z,9.89
2023-04-15T11:18:54.343Z,9.91
2023-04-15T11:21:56.962Z,9.85
2023-04-15T11:24:58.824Z,9.87
2023-04-15T11:28:02.224Z,9.85
2023-04-15T11:31:12.022Z,9.90
2023-04-15T11:34:24.149Z,9.95
2023-04-15T11:37:30.438Z,9.83
2023-04-15T11:40:33.592Z,9.91
2023-04-15T11:43:35.657Z,9.94
2023-04-15T11:46:37.494Z,9.90
2023-04-15T11:49:41.680Z,9.82
2023-04-15T11:53:01.499Z,9.71
2023-04-15T11:56:03.430Z,9.72
2023-04-15T11:59:05.326Z,9.78
2023-04-15T12:02:14.363Z,9.84
2023-04-15T12:09:01.290Z,9.65
2023-04-15T12:12:03.353Z,9.78
2023-04-15T12:15:05.680Z,9.83
2023-04-15T12:18:17.881Z,9.82
2023-04-15T12:21:21.176Z,9.74
2023-04-15T12:24:23.613Z,9.65
2023-04-15T12:27:29.270Z,9.71
2023-04-15T12:30:32.457Z,9.80
2023-04-15T12:33:34.966Z,9.78
2023-04-15T12:36:37.334Z,9.77
2023-04-15T12:39:41.591Z,9.76
2023-04-15T12:42:43.465Z,9.82
2023-04-15T12:45:45.321Z,9.93
2023-04-15T12:48:47.589Z,9.91
2023-04-15T12:51:51.140Z,9.96
2023-04-15T12:54:53.715Z,10.00
2023-04-15T12:57:55.554Z,10.07
2023-04-15T13:00:57.551Z,10.17
2023-04-15T13:03:59.589Z,10.09
2023-04-15T13:07:02.508Z,10.23
2023-04-15T13:10:04.389Z,10.24
2023-04-15T13:13:06.387Z,10.20
2023-04-15T13:16:08.488Z,10.33
2023-04-15T13:19:10.418Z,10.24
2023-04-15T13:22:12.596Z,10.16
2023-04-15T13:25:14.553Z,10.16
2023-04-15T13:28:16.509Z,10.01
2023-04-15T13:31:18.461Z,9.87
2023-04-15T13:34:20.385Z,10.12
2023-04-15T13:37:27.412Z,10.12
2023-04-15T13:40:29.361Z,10.08
2023-04-15T13:43:31.842Z,10.08
2023-04-15T13:46:33.888Z,10.01
2023-04-15T13:49:35.763Z,10.03
2023-04-15T13:52:37.736Z,9.94
2023-04-15T13:55:41.800Z,9.94
2023-04-15T13:58:43.822Z,9.88
2023-04-15T14:01:45.783Z,9.73
2023-04-15T14:04:47.707Z,9.72
2023-04-15T14:07:49.656Z,9.89
2023-04-15T14:10:51.573Z,9.95
2023-04-15T14:13:53.434Z,9.85
2023-04-15T14:16:56.749Z,9.81
2023-04-15T14:19:58.751Z,9.76
2023-04-15T14:23:00.990Z,9.73
2023-04-15T14:26:02.862Z,9.84
2023-04-15T14:29:05.136Z,9.76
2023-04-15T14:32:12.310Z,9.76
2023-04-15T14:35:14.816Z,9.70
2023-04-15T14:38:16.993Z,9.69
2023-04-15T14:41:19.728Z,9.71
2023-04-15T14:44:23.095Z,9.71
2023-04-15T14:47:27.070Z,9.68
2023-04-15T14:50:30.664Z,9.59
2023-04-15T14:53:33.251Z,9.56
2023-04-15T14:56:36.350Z,9.49
2023-04-15T14:59:39.669Z,9.40
2023-04-15T15:02:43.197Z,9.39
2023-04-15T15:05:47.796Z,9.44
2023-04-15T15:08:51.352Z,9.34
2023-04-15T15:11:53.710Z,9.22
2023-04-15T15:14:56.367Z,9.21
2023-04-15T15:17:58.973Z,9.12
2023-04-15T15:21:02.685Z,9.16
2023-04-15T15:24:06.588Z,9.10
2023-04-15T15:27:09.701Z,9.13
2023-04-15T15:30:13.502Z,9.07
2023-04-15T15:33:18.507Z,9.08
2023-04-15T15:36:21.905Z,9.04
2023-04-15T15:39:25.363Z,8.97
2023-04-15T15:42:35.058Z,8.93
2023-04-15T15:45:38.677Z,8.99
2023-04-15T15:48:42.093Z,8.94
2023-04-15T15:51:46.436Z,8.77
2023-04-15T15:54:50.372Z,8.78
2023-04-15T15:57:55.092Z,8.82
2023-04-15T16:00:58.757Z,8.70
2023-04-15T16:04:01.763Z,8.68
2023-04-15T16:07:04.539Z,8.68
2023-04-15T16:10:07.081Z,8.63
2023-04-15T16:13:10.408Z,8.63
2023-04-15T16:16:12.493Z,8.61
2023-04-15T16:19:14.410Z,8.63
2023-04-15T16:22:16.419Z,8.65
2023-04-15T16:25:18.584Z,8.51
2023-04-15T16:28:26.456Z,8.48
2023-04-15T16:31:29.060Z,8.53
2023-04-15T16:34:31.102Z,8.54
2023-04-15T16:37:33.417Z,8.51
2023-04-15T16:40:35.306Z,8.43
2023-04-15T16:43:37.265Z,8.31
2023-04-15T16:46:40.875Z,8.32
2023-04-15T16:49:42.996Z,8.24
2023-04-15T16:52:44.855Z,8.20
2023-04-15T16:55:46.806Z,8.09
2023-04-15T16:58:48.711Z,8.06
2023-04-15T17:01:50.817Z,8.05
2023-04-15T17:04:52.746Z,8.04
2023-04-15T17:07:55.240Z,8.04
2023-04-15T17:10:58.220Z,8.00
2023-04-15T17:14:00.125Z,7.99
2023-04-15T17:17:02.088Z,7.97
2023-04-15T17:20:04.633Z,7.93
2023-04-15T17:23:06.669Z,7.90
2023-04-15T17:26:08.751Z,7.95
2023-04-15T17:29:10.632Z,7.95
2023-04-15T17:32:12.611Z,7.90
2023-04-15T17:35:17.054Z,7.88
2023-04-15T17:38:18.920Z,7.82
2023-04-15T17:41:20.860Z,7.80
2023-04-15T17:44:25.073Z,7.76
2023-04-15T17:47:27.962Z,7.77
2023-04-15T17:50:29.966Z,7.75
2023-04-15T17:53:31.885Z,7.77
2023-04-15T17:56:35.263Z,7.69
2023-04-15T17:59:37.285Z,7.68
2023-04-15T18:02:39.788Z,7.60
2023-04-15T18:05:42.786Z,7.57
2023-04-15T18:08:44.722Z,7.60
2023-04-15T18:11:48.452Z,7.56
2023-04-15T18:14:50.629Z,7.61
2023-04-15T18:17:52.710Z,7.62
2023-04-15T18:20:54.633Z,7.61
2023-04-15T18:23:56.623Z,7.54
2023-04-15T18:26:59.296Z,7.62
2023-04-15T18:30:02.478Z,7.57
2023-04-15T18:33:05.575Z,7.53
2023-04-15T18:36:07.649Z,7.52
2023-04-15T18:39:10.129Z,7.52
2023-04-15T18:42:12.209Z,7.45
2023-04-15T18:45:14.328Z,7.44
2023-04-15T18:48:17.696Z,7.41
2023-04-15T18:51:19.683Z,7.44
2023-04-15T18:54:21.755Z,7.40
2023-04-15T18:57:31.268Z,7.32
2023-04-15T19:00:40.500Z,7.33
2023-04-15T19:03:43.499Z,7.20
2023-04-15T19:06:46.649Z,7.26
2023-04-15T19:09:49.125Z,7.18
2023-04-15T19:12:51.076Z,7.16
2023-04-15T19:15:53.063Z,7.13
2023-04-15T19:18:54.968Z,7.09
2023-04-15T19:21:56.855Z,7.03
2023-04-15T19:24:58.897Z,7.03
2023-04-15T19:28:00.770Z,6.98
2023-04-15T19:31:04.065Z,6.87
2023-04-15T19:34:06.456Z,6.94
2023-04-15T19:37:08.428Z,6.90
2023-04-15T19:40:10.719Z,6.89
2023-04-15T19:43:12.678Z,6.84
2023-04-15T19:46:14.727Z,6.73
2023-04-15T19:49:16.893Z,6.80
2023-04-15T19:52:18.818Z,6.70
2023-04-15T19:55:20.994Z,6.74
2023-04-15T19:58:22.877Z,6.71
2023-04-15T20:01:24.751Z,6.73
2023-04-15T20:04:27.449Z,6.76
2023-04-15T20:07:29.449Z,6.69
2023-04-15T20:10:31.907Z,6.76
2023-04-15T20:13:33.919Z,6.71
2023-04-15T20:16:38.331Z,6.69
2023-04-15T20:19:40.257Z,6.68
2023-04-15T20:22:42.467Z,6.68
2023-04-15T20:25:45.458Z,6.59
2023-04-15T20:28:47.263Z,6.57
2023-04-15T20:31:49.200Z,6.44
2023-04-15T20:34:51.300Z,6.40
2023-04-15T20:37:53.390Z,6.34
2023-04-15T20:40:55.279Z,6.32
2023-04-15T20:43:57.114Z,6.20
2023-04-15T20:46:58.950Z,6.21
2023-04-15T20:50:00.998Z,6.13
2023-04-15T20:53:04.461Z,6.10
2023-04-15T20:56:06.575Z,6.08
2023-04-15T20:59:08.488Z,6.05
2023-04-15T21:02:10.689Z,6.02
2023-04-15T21:05:12.644Z,5.99
2023-04-15T21:08:14.581Z,5.91
2023-04-15T21:11:28.421Z,5.89
2023-04-15T21:14:40.665Z,5.88
2023-04-15T21:17:42.665Z,5.89
2023-04-15T21:20:44.673Z,5.89
2023-04-15T21:23:46.609Z,5.87
2023-04-15T21:26:48.560Z,5.88
2023-04-15T21:29:50.471Z,5.90
2023-04-15T21:32:52.398Z,5.90
2023-04-15T21:35:54.698Z,5.92
2023-04-15T21:38:56.604Z,5.88
2023-04-15T21:41:59.623Z,5.92
2023-04-15T21:45:01.482Z,5.91
2023-04-15T21:48:08.044Z,5.89
2023-04-15T21:51:10.514Z,5.89
2023-04-15T21:54:12.353Z,5.89
2023-04-15T21:57:14.308Z,5.84
2023-04-15T22:00:16.564Z,5.80
2023-04-15T22:03:18.705Z,5.71
2023-04-15T22:06:21.153Z,5.76
2023-04-15T22:09:23.090Z,5.68
2023-04-15T22:12:25.021Z,5.66
2023-04-15T22:15:27.498Z,5.68
2023-04-15T22:18:29.302Z,5.55
2023-04-15T22:21:31.976Z,5.54
2023-04-15T22:24:40.452Z,5.47
2023-04-15T22:27:42.644Z,5.50
2023-04-15T22:30:44.553Z,5.35
2023-04-15T22:33:46.482Z,5.30
2023-04-15T22:36:49.391Z,5.25
2023-04-15T22:39:51.998Z,5.25
2023-04-15T22:42:53.884Z,5.17
2023-04-15T22:45:56.697Z,5.13
2023-04-15T22:48:58.644Z,5.18
2023-04-15T22:52:00.713Z,5.17
2023-04-15T22:55:02.709Z,5.16
2023-04-15T22:58:04.686Z,5.21
2023-04-15T23:01:06.617Z,5.17
2023-04-15T23:04:09.522Z,5.19
2023-04-15T23:07:13.013Z,5.19
2023-04-15T23:10:14.877Z,5.21
2023-04-15T23:13:16.742Z,5.32
2023-04-15T23:16:18.800Z,5.28
2023-04-15T23:19:20.818Z,5.34
2023-04-15T23:22:22.742Z,5.32
2023-04-15T23:25:24.582Z,5.24
2023-04-15T23:28:26.444Z,5.23
2023-04-15T23:31:28.332Z,5.29
2023-04-15T23:34:30.298Z,5.23
2023-04-15T23:37:32.196Z,5.32
2023-04-15T23:40:34.171Z,5.27
2023-04-15T23:43:36.157Z,5.26
2023-04-15T23:46:38.064Z,5.26
2023-04-15T23:49:41.082Z,5.24
2023-04-15T23:52:42.933Z,5.21
2023-04-15T23:55:44.749Z,5.22
2023-04-15T23:58:46.675Z,5.13
